sensor_id;sensor_type;location;lat;lon;timestamp;P1;durP1;ratioP1;P2;durP2;ratioP2
21416;SDS011;10869;52.238;10.716;2024-01-07T00:02:11;33.40;;;17.87;;
21416;SDS011;10869;52.238;10.716;2024-01-07T00:04:36;33.20;;;17.50;;
21416;SDS011;10869;52.238;10.716;2024-01-07T00:07:03;28.87;;;15.70;;
21416;SDS011;10869;52.238;10.716;2024-01-07T00:09:30;35.27;;;18.73;;
21416;SDS011;10869;52.238;10.716;2024-01-07T00:11:55;33.07;;;19.60;;
21416;SDS011;10869;52.238;10.716;2024-01-07T00:14:21;33.10;;;17.73;;
21416;SDS011;10869;52.238;10.716;2024-01-07T00:16:47;30.90;;;17.43;;
21416;SDS011;10869;52.238;10.716;2024-01-07T00:19:13;26.33;;;15.70;;
21416;SDS011;10869;52.238;10.716;2024-01-07T00:21:38;28.13;;;17.33;;
21416;SDS011;10869;52.238;10.716;2024-01-07T00:24:04;29.90;;;17.63;;
21416;SDS011;10869;52.238;10.716;2024-01-07T00:26:30;34.10;;;19.90;;
21416;SDS011;10869;52.238;10.716;2024-01-07T00:28:56;32.33;;;18.53;;
21416;SDS011;10869;52.238;10.716;2024-01-07T00:31:21;33.10;;;16.83;;
21416;SDS011;10869;52.238;10.716;2024-01-07T00:33:47;30.47;;;16.77;;
21416;SDS011;10869;52.238;10.716;2024-01-07T00:36:13;27.07;;;15.77;;
21416;SDS011;10869;52.238;10.716;2024-01-07T00:38:39;28.77;;;15.37;;
21416;SDS011;10869;52.238;10.716;2024-01-07T00:41:04;24.47;;;14.70;;
21416;SDS011;10869;52.238;10.716;2024-01-07T00:43:30;25.87;;;14.47;;
21416;SDS011;10869;52.238;10.716;2024-01-07T00:45:56;31.77;;;16.90;;
21416;SDS011;10869;52.238;10.716;2024-01-07T00:48:22;28.47;;;15.50;;
21416;SDS011;10869;52.238;10.716;2024-01-07T00:50:47;27.33;;;14.10;;
21416;SDS011;10869;52.238;10.716;2024-01-07T00:53:13;29.30;;;14.97;;
21416;SDS011;10869;52.238;10.716;2024-01-07T00:55:39;23.40;;;12.97;;
21416;SDS011;10869;52.238;10.716;2024-01-07T00:58:04;29.43;;;14.23;;
21416;SDS011;10869;52.238;10.716;2024-01-07T01:00:30;26.23;;;13.90;;
21416;SDS011;10869;52.238;10.716;2024-01-07T01:02:56;25.67;;;12.43;;
21416;SDS011;10869;52.238;10.716;2024-01-07T01:05:21;24.37;;;12.70;;
21416;SDS011;10869;52.238;10.716;2024-01-07T01:07:47;24.40;;;12.93;;
21416;SDS011;10869;52.238;10.716;2024-01-07T01:10:13;25.60;;;12.37;;
21416;SDS011;10869;52.238;10.716;2024-01-07T01:12:42;23.10;;;12.27;;
21416;SDS011;10869;52.238;10.716;2024-01-07T01:15:08;18.47;;;11.20;;
21416;SDS011;10869;52.238;10.716;2024-01-07T01:17:34;21.53;;;12.13;;
21416;SDS011;10869;52.238;10.716;2024-01-07T01:20:00;16.87;;;10.47;;
21416;SDS011;10869;52.238;10.716;2024-01-07T01:22:25;20.17;;;10.60;;
21416;SDS011;10869;52.238;10.716;2024-01-07T01:24:51;20.80;;;10.20;;
21416;SDS011;10869;52.238;10.716;2024-01-07T01:27:18;16.97;;;9.43;;
21416;SDS011;10869;52.238;10.716;2024-01-07T01:29:44;21.10;;;10.87;;
21416;SDS011;10869;52.238;10.716;2024-01-07T01:32:10;20.77;;;10.00;;
21416;SDS011;10869;52.238;10.716;2024-01-07T01:34:36;20.13;;;10.27;;
21416;SDS011;10869;52.238;10.716;2024-01-07T01:37:02;19.17;;;9.73;;
21416;SDS011;10869;52.238;10.716;2024-01-07T01:39:28;15.03;;;8.33;;
21416;SDS011;10869;52.238;10.716;2024-01-07T01:41:54;17.63;;;9.03;;
21416;SDS011;10869;52.238;10.716;2024-01-07T01:44:20;19.47;;;9.47;;
21416;SDS011;10869;52.238;10.716;2024-01-07T01:46:46;17.33;;;8.33;;
21416;SDS011;10869;52.238;10.716;2024-01-07T01:49:12;16.40;;;8.60;;
21416;SDS011;10869;52.238;10.716;2024-01-07T01:51:39;17.63;;;8.97;;
21416;SDS011;10869;52.238;10.716;2024-01-07T01:54:05;24.80;;;10.13;;
21416;SDS011;10869;52.238;10.716;2024-01-07T01:56:31;18.33;;;10.43;;
21416;SDS011;10869;52.238;10.716;2024-01-07T01:58:57;21.40;;;11.70;;
21416;SDS011;10869;52.238;10.716;2024-01-07T02:01:24;16.80;;;9.10;;
21416;SDS011;10869;52.238;10.716;2024-01-07T02:03:50;23.67;;;10.97;;
21416;SDS011;10869;52.238;10.716;2024-01-07T02:06:17;19.83;;;10.47;;
21416;SDS011;10869;52.238;10.716;2024-01-07T02:08:44;21.30;;;10.10;;
21416;SDS011;10869;52.238;10.716;2024-01-07T02:11:20;17.13;;;9.03;;
21416;SDS011;10869;52.238;10.716;2024-01-07T02:13:47;18.20;;;9.07;;
21416;SDS011;10869;52.238;10.716;2024-01-07T02:16:13;22.30;;;9.53;;
21416;SDS011;10869;52.238;10.716;2024-01-07T02:18:40;18.47;;;9.40;;
21416;SDS011;10869;52.238;10.716;2024-01-07T02:21:08;20.70;;;9.57;;
21416;SDS011;10869;52.238;10.716;2024-01-07T02:23:34;16.03;;;9.00;;
21416;SDS011;10869;52.238;10.716;2024-01-07T02:26:01;17.97;;;9.63;;
21416;SDS011;10869;52.238;10.716;2024-01-07T02:28:26;22.83;;;10.47;;
21416;SDS011;10869;52.238;10.716;2024-01-07T02:30:52;22.90;;;10.67;;
21416;SDS011;10869;52.238;10.716;2024-01-07T02:33:18;21.70;;;10.70;;
21416;SDS011;10869;52.238;10.716;2024-01-07T02:35:44;17.97;;;9.10;;
21416;SDS011;10869;52.238;10.716;2024-01-07T02:38:09;17.93;;;8.47;;
21416;SDS011;10869;52.238;10.716;2024-01-07T02:40:35;18.23;;;9.23;;
21416;SDS011;10869;52.238;10.716;2024-01-07T02:43:01;19.40;;;9.93;;
21416;SDS011;10869;52.238;10.716;2024-01-07T02:45:26;16.90;;;9.13;;
21416;SDS011;10869;52.238;10.716;2024-01-07T02:47:52;17.63;;;9.17;;
21416;SDS011;10869;52.238;10.716;2024-01-07T02:50:18;22.47;;;9.37;;
21416;SDS011;10869;52.238;10.716;2024-01-07T02:52:44;16.10;;;8.43;;
21416;SDS011;10869;52.238;10.716;2024-01-07T02:55:09;15.80;;;8.73;;
21416;SDS011;10869;52.238;10.716;2024-01-07T02:57:35;14.53;;;8.27;;
21416;SDS011;10869;52.238;10.716;2024-01-07T03:00:01;18.67;;;8.47;;
21416;SDS011;10869;52.238;10.716;2024-01-07T03:02:27;13.77;;;7.10;;
21416;SDS011;10869;52.238;10.716;2024-01-07T03:04:53;12.90;;;7.33;;
21416;SDS011;10869;52.238;10.716;2024-01-07T03:07:19;13.73;;;6.83;;
21416;SDS011;10869;52.238;10.716;2024-01-07T03:13:06;14.30;;;6.93;;
21416;SDS011;10869;52.238;10.716;2024-01-07T03:15:32;17.30;;;6.30;;
21416;SDS011;10869;52.238;10.716;2024-01-07T03:17:57;12.23;;;6.00;;
21416;SDS011;10869;52.238;10.716;2024-01-07T03:20:23;9.43;;;5.33;;
21416;SDS011;10869;52.238;10.716;2024-01-07T03:22:49;9.50;;;5.23;;
21416;SDS011;10869;52.238;10.716;2024-01-07T03:25:15;8.13;;;4.63;;
21416;SDS011;10869;52.238;10.716;2024-01-07T03:27:40;16.30;;;5.80;;
21416;SDS011;10869;52.238;10.716;2024-01-07T03:30:06;10.70;;;4.43;;
21416;SDS011;10869;52.238;10.716;2024-01-07T03:32:34;9.23;;;4.13;;
21416;SDS011;10869;52.238;10.716;2024-01-07T03:34:59;11.83;;;4.60;;
21416;SDS011;10869;52.238;10.716;2024-01-07T03:37:25;10.20;;;4.23;;
21416;SDS011;10869;52.238;10.716;2024-01-07T03:39:51;10.13;;;3.93;;
21416;SDS011;10869;52.238;10.716;2024-01-07T03:42:16;7.73;;;3.73;;
21416;SDS011;10869;52.238;10.716;2024-01-07T03:44:42;10.53;;;4.10;;
21416;SDS011;10869;52.238;10.716;2024-01-07T03:47:08;7.27;;;3.43;;
21416;SDS011;10869;52.238;10.716;2024-01-07T03:49:36;13.07;;;4.33;;
21416;SDS011;10869;52.238;10.716;2024-01-07T03:52:02;8.33;;;3.50;;
21416;SDS011;10869;52.238;10.716;2024-01-07T03:54:29;7.97;;;3.33;;
21416;SDS011;10869;52.238;10.716;2024-01-07T03:56:55;7.03;;;3.47;;
21416;SDS011;10869;52.238;10.716;2024-01-07T03:59:21;7.83;;;3.63;;
21416;SDS011;10869;52.238;10.716;2024-01-07T04:01:48;5.70;;;2.70;;
21416;SDS011;10869;52.238;10.716;2024-01-07T04:04:14;7.87;;;3.00;;
21416;SDS011;10869;52.238;10.716;2024-01-07T04:06:39;10.97;;;3.23;;
21416;SDS011;10869;52.238;10.716;2024-01-07T04:09:05;7.87;;;2.97;;
21416;SDS011;10869;52.238;10.716;2024-01-07T04:11:31;6.70;;;2.80;;
21416;SDS011;10869;52.238;10.716;2024-01-07T04:13:57;9.63;;;3.10;;
21416;SDS011;10869;52.238;10.716;2024-01-07T04:16:22;11.23;;;3.10;;
21416;SDS011;10869;52.238;10.716;2024-01-07T04:18:48;8.17;;;3.47;;
21416;SDS011;10869;52.238;10.716;2024-01-07T04:21:14;9.57;;;3.57;;
21416;SDS011;10869;52.238;10.716;2024-01-07T04:23:39;6.20;;;2.90;;
21416;SDS011;10869;52.238;10.716;2024-01-07T04:26:06;9.43;;;3.50;;
21416;SDS011;10869;52.238;10.716;2024-01-07T04:28:32;6.60;;;3.07;;
21416;SDS011;10869;52.238;10.716;2024-01-07T04:30:58;8.37;;;3.10;;
21416;SDS011;10869;52.238;10.716;2024-01-07T04:33:24;6.33;;;2.70;;
21416;SDS011;10869;52.238;10.716;2024-01-07T04:35:49;8.13;;;2.90;;
21416;SDS011;10869;52.238;10.716;2024-01-07T04:38:15;8.87;;;2.87;;
21416;SDS011;10869;52.238;10.716;2024-01-07T04:40:41;8.47;;;3.13;;
21416;SDS011;10869;52.238;10.716;2024-01-07T04:43:06;7.07;;;2.53;;
21416;SDS011;10869;52.238;10.716;2024-01-07T04:45:32;7.83;;;3.17;;
21416;SDS011;10869;52.238;10.716;2024-01-07T04:47:58;6.20;;;2.97;;
21416;SDS011;10869;52.238;10.716;2024-01-07T04:50:24;6.87;;;2.93;;
21416;SDS011;10869;52.238;10.716;2024-01-07T04:52:49;10.43;;;3.40;;
21416;SDS011;10869;52.238;10.716;2024-01-07T04:55:15;6.90;;;3.27;;
21416;SDS011;10869;52.238;10.716;2024-01-07T04:57:41;10.40;;;4.10;;
21416;SDS011;10869;52.238;10.716;2024-01-07T05:00:06;9.87;;;3.43;;
21416;SDS011;10869;52.238;10.716;2024-01-07T05:02:32;8.93;;;3.70;;
21416;SDS011;10869;52.238;10.716;2024-01-07T05:04:58;8.60;;;3.63;;
21416;SDS011;10869;52.238;10.716;2024-01-07T05:07:24;6.40;;;3.10;;
21416;SDS011;10869;52.238;10.716;2024-01-07T05:09:49;10.50;;;4.17;;
21416;SDS011;10869;52.238;10.716;2024-01-07T05:12:15;7.50;;;3.40;;
21416;SDS011;10869;52.238;10.716;2024-01-07T05:14:41;8.23;;;3.10;;
21416;SDS011;10869;52.238;10.716;2024-01-07T05:17:08;8.23;;;2.93;;
21416;SDS011;10869;52.238;10.716;2024-01-07T05:19:34;9.23;;;3.73;;
21416;SDS011;10869;52.238;10.716;2024-01-07T05:22:00;10.50;;;3.50;;
21416;SDS011;10869;52.238;10.716;2024-01-07T05:24:26;8.80;;;3.40;;
21416;SDS011;10869;52.238;10.716;2024-01-07T05:26:51;7.13;;;3.13;;
21416;SDS011;10869;52.238;10.716;2024-01-07T05:29:17;9.07;;;4.00;;
21416;SDS011;10869;52.238;10.716;2024-01-07T05:31:43;8.10;;;3.93;;
21416;SDS011;10869;52.238;10.716;2024-01-07T05:34:09;8.63;;;3.27;;
21416;SDS011;10869;52.238;10.716;2024-01-07T05:36:35;8.20;;;3.70;;
21416;SDS011;10869;52.238;10.716;2024-01-07T05:39:00;8.57;;;3.40;;
21416;SDS011;10869;52.238;10.716;2024-01-07T05:41:26;8.27;;;4.10;;
21416;SDS011;10869;52.238;10.716;2024-01-07T05:43:52;8.70;;;3.60;;
21416;SDS011;10869;52.238;10.716;2024-01-07T05:46:18;12.83;;;3.87;;
21416;SDS011;10869;52.238;10.716;2024-01-07T05:48:45;7.37;;;3.23;;
21416;SDS011;10869;52.238;10.716;2024-01-07T05:51:12;8.50;;;3.63;;
21416;SDS011;10869;52.238;10.716;2024-01-07T05:53:39;10.90;;;3.80;;
21416;SDS011;10869;52.238;10.716;2024-01-07T05:56:05;9.33;;;3.90;;
21416;SDS011;10869;52.238;10.716;2024-01-07T05:58:31;9.40;;;4.87;;
21416;SDS011;10869;52.238;10.716;2024-01-07T06:00:56;8.13;;;4.17;;
21416;SDS011;10869;52.238;10.716;2024-01-07T06:03:22;7.53;;;3.83;;
21416;SDS011;10869;52.238;10.716;2024-01-07T06:05:48;12.70;;;4.63;;
21416;SDS011;10869;52.238;10.716;2024-01-07T06:08:14;9.90;;;4.00;;
21416;SDS011;10869;52.238;10.716;2024-01-07T06:10:40;11.40;;;4.10;;
21416;SDS011;10869;52.238;10.716;2024-01-07T06:13:06;9.27;;;3.80;;
21416;SDS011;10869;52.238;10.716;2024-01-07T06:15:32;9.40;;;4.03;;
21416;SDS011;10869;52.238;10.716;2024-01-07T06:17:57;8.40;;;3.80;;
21416;SDS011;10869;52.238;10.716;2024-01-07T06:20:26;8.77;;;4.57;;
21416;SDS011;10869;52.238;10.716;2024-01-07T06:22:53;11.23;;;4.27;;
21416;SDS011;10869;52.238;10.716;2024-01-07T06:28:43;8.63;;;4.00;;
21416;SDS011;10869;52.238;10.716;2024-01-07T06:31:08;11.77;;;4.77;;
21416;SDS011;10869;52.238;10.716;2024-01-07T06:33:34;10.03;;;4.00;;
21416;SDS011;10869;52.238;10.716;2024-01-07T06:36:00;6.83;;;3.57;;
21416;SDS011;10869;52.238;10.716;2024-01-07T06:38:27;12.13;;;4.17;;
21416;SDS011;10869;52.238;10.716;2024-01-07T06:40:52;9.80;;;3.73;;
21416;SDS011;10869;52.238;10.716;2024-01-07T06:43:24;12.07;;;4.80;;
21416;SDS011;10869;52.238;10.716;2024-01-07T06:45:53;9.97;;;4.87;;
21416;SDS011;10869;52.238;10.716;2024-01-07T06:48:21;7.93;;;4.00;;
21416;SDS011;10869;52.238;10.716;2024-01-07T06:50:47;11.23;;;4.90;;
21416;SDS011;10869;52.238;10.716;2024-01-07T06:53:13;9.97;;;4.77;;
21416;SDS011;10869;52.238;10.716;2024-01-07T06:55:43;8.43;;;4.10;;
21416;SDS011;10869;52.238;10.716;2024-01-07T06:58:10;9.07;;;4.10;;
21416;SDS011;10869;52.238;10.716;2024-01-07T07:00:35;8.90;;;3.90;;
21416;SDS011;10869;52.238;10.716;2024-01-07T07:03:05;10.33;;;4.80;;
21416;SDS011;10869;52.238;10.716;2024-01-07T07:05:33;9.37;;;4.37;;
21416;SDS011;10869;52.238;10.716;2024-01-07T07:07:59;10.90;;;4.93;;
21416;SDS011;10869;52.238;10.716;2024-01-07T07:13:47;10.87;;;4.47;;
21416;SDS011;10869;52.238;10.716;2024-01-07T07:19:38;12.33;;;5.17;;
21416;SDS011;10869;52.238;10.716;2024-01-07T07:25:26;9.07;;;4.63;;
21416;SDS011;10869;52.238;10.716;2024-01-07T07:31:14;11.17;;;4.33;;
21416;SDS011;10869;52.238;10.716;2024-01-07T07:37:03;8.00;;;3.60;;
21416;SDS011;10869;52.238;10.716;2024-01-07T07:39:30;10.27;;;4.67;;
21416;SDS011;10869;52.238;10.716;2024-01-07T07:41:56;9.83;;;4.47;;
21416;SDS011;10869;52.238;10.716;2024-01-07T07:44:42;9.73;;;4.13;;
21416;SDS011;10869;52.238;10.716;2024-01-07T07:47:08;9.40;;;4.57;;
21416;SDS011;10869;52.238;10.716;2024-01-07T07:52:59;9.70;;;4.50;;
21416;SDS011;10869;52.238;10.716;2024-01-07T07:55:24;10.03;;;4.43;;
21416;SDS011;10869;52.238;10.716;2024-01-07T07:57:52;9.27;;;4.37;;
21416;SDS011;10869;52.238;10.716;2024-01-07T08:03:23;8.90;;;4.57;;
21416;SDS011;10869;52.238;10.716;2024-01-07T08:05:49;13.87;;;5.17;;
21416;SDS011;10869;52.238;10.716;2024-01-07T08:08:15;9.37;;;4.73;;
21416;SDS011;10869;52.238;10.716;2024-01-07T08:14:04;8.97;;;4.37;;
21416;SDS011;10869;52.238;10.716;2024-01-07T08:16:39;9.03;;;4.17;;
21416;SDS011;10869;52.238;10.716;2024-01-07T08:20:02;12.13;;;4.80;;
21416;SDS011;10869;52.238;10.716;2024-01-07T08:22:28;10.20;;;4.60;;
21416;SDS011;10869;52.238;10.716;2024-01-07T08:28:19;9.40;;;4.57;;
21416;SDS011;10869;52.238;10.716;2024-01-07T08:34:13;9.73;;;4.37;;
21416;SDS011;10869;52.238;10.716;2024-01-07T08:52:30;9.83;;;5.63;;
21416;SDS011;10869;52.238;10.716;2024-01-07T08:58:04;11.10;;;6.07;;
21416;SDS011;10869;52.238;10.716;2024-01-07T09:03:53;11.03;;;6.07;;
21416;SDS011;10869;52.238;10.716;2024-01-07T09:09:40;14.13;;;6.60;;
21416;SDS011;10869;52.238;10.716;2024-01-07T09:12:06;11.60;;;5.57;;
21416;SDS011;10869;52.238;10.716;2024-01-07T09:14:33;16.17;;;5.93;;
21416;SDS011;10869;52.238;10.716;2024-01-07T09:16:59;16.47;;;6.50;;
21416;SDS011;10869;52.238;10.716;2024-01-07T09:19:24;11.83;;;6.67;;
21416;SDS011;10869;52.238;10.716;2024-01-07T09:21:50;11.17;;;6.20;;
21416;SDS011;10869;52.238;10.716;2024-01-07T09:24:20;12.57;;;6.40;;
21416;SDS011;10869;52.238;10.716;2024-01-07T09:26:52;11.50;;;5.73;;
21416;SDS011;10869;52.238;10.716;2024-01-07T09:29:22;11.37;;;6.10;;
21416;SDS011;10869;52.238;10.716;2024-01-07T09:31:47;8.93;;;5.20;;
21416;SDS011;10869;52.238;10.716;2024-01-07T09:34:13;10.43;;;5.67;;
21416;SDS011;10869;52.238;10.716;2024-01-07T09:40:12;11.17;;;6.80;;
21416;SDS011;10869;52.238;10.716;2024-01-07T09:42:48;22.00;;;11.60;;
21416;SDS011;10869;52.238;10.716;2024-01-07T09:53:01;23.10;;;10.23;;
21416;SDS011;10869;52.238;10.716;2024-01-07T09:58:25;12.87;;;6.63;;
21416;SDS011;10869;52.238;10.716;2024-01-07T10:03:27;13.93;;;8.73;;
21416;SDS011;10869;52.238;10.716;2024-01-07T10:05:55;16.90;;;6.53;;
21416;SDS011;10869;52.238;10.716;2024-01-07T10:08:21;15.07;;;9.00;;
21416;SDS011;10869;52.238;10.716;2024-01-07T10:14:10;13.13;;;8.13;;
21416;SDS011;10869;52.238;10.716;2024-01-07T10:16:36;14.43;;;7.37;;
21416;SDS011;10869;52.238;10.716;2024-01-07T10:19:05;11.83;;;6.27;;
21416;SDS011;10869;52.238;10.716;2024-01-07T10:21:32;13.47;;;5.80;;
21416;SDS011;10869;52.238;10.716;2024-01-07T10:24:08;10.23;;;6.30;;
21416;SDS011;10869;52.238;10.716;2024-01-07T10:26:42;9.97;;;5.17;;
21416;SDS011;10869;52.238;10.716;2024-01-07T10:29:08;9.03;;;4.90;;
21416;SDS011;10869;52.238;10.716;2024-01-07T10:31:34;9.17;;;4.83;;
21416;SDS011;10869;52.238;10.716;2024-01-07T10:34:00;9.57;;;4.40;;
21416;SDS011;10869;52.238;10.716;2024-01-07T10:36:26;9.47;;;5.07;;
21416;SDS011;10869;52.238;10.716;2024-01-07T10:38:52;10.87;;;5.20;;
21416;SDS011;10869;52.238;10.716;2024-01-07T10:41:20;8.97;;;4.70;;
21416;SDS011;10869;52.238;10.716;2024-01-07T10:43:49;9.60;;;5.00;;
21416;SDS011;10869;52.238;10.716;2024-01-07T10:49:48;9.57;;;5.33;;
21416;SDS011;10869;52.238;10.716;2024-01-07T10:55:15;9.43;;;4.13;;
21416;SDS011;10869;52.238;10.716;2024-01-07T10:57:56;8.50;;;3.77;;
21416;SDS011;10869;52.238;10.716;2024-01-07T11:00:23;9.53;;;4.07;;
21416;SDS011;10869;52.238;10.716;2024-01-07T11:08:05;10.97;;;4.80;;
21416;SDS011;10869;52.238;10.716;2024-01-07T11:10:53;10.23;;;4.60;;
21416;SDS011;10869;52.238;10.716;2024-01-07T11:13:38;7.60;;;4.00;;
21416;SDS011;10869;52.238;10.716;2024-01-07T11:16:05;11.20;;;4.70;;
21416;SDS011;10869;52.238;10.716;2024-01-07T11:18:37;7.03;;;3.77;;
21416;SDS011;10869;52.238;10.716;2024-01-07T11:21:05;12.80;;;5.00;;
21416;SDS011;10869;52.238;10.716;2024-01-07T11:24:05;9.23;;;4.00;;
21416;SDS011;10869;52.238;10.716;2024-01-07T11:26:28;8.57;;;3.83;;
21416;SDS011;10869;52.238;10.716;2024-01-07T11:34:11;12.13;;;6.90;;
21416;SDS011;10869;52.238;10.716;2024-01-07T11:37:06;10.37;;;4.03;;
21416;SDS011;10869;52.238;10.716;2024-01-07T11:47:20;11.60;;;4.93;;
21416;SDS011;10869;52.238;10.716;2024-01-07T11:49:47;11.03;;;4.27;;
21416;SDS011;10869;52.238;10.716;2024-01-07T11:52:16;9.13;;;4.60;;
21416;SDS011;10869;52.238;10.716;2024-01-07T11:58:05;10.13;;;4.30;;
21416;SDS011;10869;52.238;10.716;2024-01-07T12:00:34;9.80;;;4.07;;
21416;SDS011;10869;52.238;10.716;2024-01-07T12:06:22;9.37;;;4.53;;
21416;SDS011;10869;52.238;10.716;2024-01-07T12:09:00;9.10;;;4.83;;
21416;SDS011;10869;52.238;10.716;2024-01-07T12:11:26;7.90;;;3.77;;
21416;SDS011;10869;52.238;10.716;2024-01-07T12:13:52;6.77;;;3.77;;
21416;SDS011;10869;52.238;10.716;2024-01-07T12:16:25;8.03;;;4.43;;
21416;SDS011;10869;52.238;10.716;2024-01-07T12:19:25;6.73;;;3.97;;
21416;SDS011;10869;52.238;10.716;2024-01-07T12:22:02;11.20;;;5.83;;
21416;SDS011;10869;52.238;10.716;2024-01-07T12:24:28;15.07;;;5.67;;
21416;SDS011;10869;52.238;10.716;2024-01-07T12:27:03;11.53;;;5.23;;
21416;SDS011;10869;52.238;10.716;2024-01-07T12:29:45;9.27;;;4.07;;
21416;SDS011;10869;52.238;10.716;2024-01-07T12:40:09;8.73;;;4.40;;
21416;SDS011;10869;52.238;10.716;2024-01-07T12:42:37;10.30;;;4.80;;
21416;SDS011;10869;52.238;10.716;2024-01-07T12:45:22;11.77;;;5.77;;
21416;SDS011;10869;52.238;10.716;2024-01-07T12:48:00;11.93;;;5.03;;
21416;SDS011;10869;52.238;10.716;2024-01-07T13:46:25;9.27;;;4.87;;
21416;SDS011;10869;52.238;10.716;2024-01-07T13:48:54;9.83;;;4.70;;
21416;SDS011;10869;52.238;10.716;2024-01-07T13:51:22;10.27;;;5.10;;
21416;SDS011;10869;52.238;10.716;2024-01-07T13:53:51;10.70;;;4.77;;
21416;SDS011;10869;52.238;10.716;2024-01-07T13:59:41;8.63;;;4.23;;
21416;SDS011;10869;52.238;10.716;2024-01-07T14:02:07;9.80;;;4.90;;
21416;SDS011;10869;52.238;10.716;2024-01-07T14:04:34;13.97;;;5.03;;
21416;SDS011;10869;52.238;10.716;2024-01-07T14:07:14;10.40;;;5.40;;
21416;SDS011;10869;52.238;10.716;2024-01-07T14:09:40;10.53;;;4.63;;
21416;SDS011;10869;52.238;10.716;2024-01-07T14:12:08;12.60;;;5.53;;
21416;SDS011;10869;52.238;10.716;2024-01-07T14:14:34;11.57;;;5.30;;
21416;SDS011;10869;52.238;10.716;2024-01-07T14:17:00;16.40;;;6.83;;
21416;SDS011;10869;52.238;10.716;2024-01-07T14:19:31;19.23;;;5.80;;
21416;SDS011;10869;52.238;10.716;2024-01-07T14:21:57;11.37;;;4.63;;
21416;SDS011;10869;52.238;10.716;2024-01-07T14:24:26;18.80;;;4.23;;
21416;SDS011;10869;52.238;10.716;2024-01-07T14:26:55;11.00;;;3.87;;
21416;SDS011;10869;52.238;10.716;2024-01-07T14:34:45;7.37;;;4.67;;
21416;SDS011;10869;52.238;10.716;2024-01-07T14:37:10;9.57;;;4.53;;
21416;SDS011;10869;52.238;10.716;2024-01-07T14:39:36;8.27;;;3.70;;
21416;SDS011;10869;52.238;10.716;2024-01-07T14:45:25;11.07;;;3.97;;
21416;SDS011;10869;52.238;10.716;2024-01-07T14:47:52;6.97;;;3.77;;
21416;SDS011;10869;52.238;10.716;2024-01-07T14:53:19;7.80;;;4.10;;
21416;SDS011;10869;52.238;10.716;2024-01-07T14:55:45;7.47;;;3.50;;
21416;SDS011;10869;52.238;10.716;2024-01-07T14:58:11;8.73;;;4.33;;
21416;SDS011;10869;52.238;10.716;2024-01-07T15:00:39;7.30;;;3.53;;
21416;SDS011;10869;52.238;10.716;2024-01-07T15:03:05;9.37;;;3.67;;
21416;SDS011;10869;52.238;10.716;2024-01-07T15:05:31;6.87;;;3.17;;
21416;SDS011;10869;52.238;10.716;2024-01-07T15:07:57;9.53;;;3.57;;
21416;SDS011;10869;52.238;10.716;2024-01-07T15:10:24;8.43;;;3.77;;
21416;SDS011;10869;52.238;10.716;2024-01-07T15:12:50;10.37;;;4.40;;
21416;SDS011;10869;52.238;10.716;2024-01-07T15:15:15;14.10;;;4.77;;
21416;SDS011;10869;52.238;10.716;2024-01-07T15:17:44;10.13;;;4.00;;
21416;SDS011;10869;52.238;10.716;2024-01-07T15:20:13;10.07;;;3.83;;
21416;SDS011;10869;52.238;10.716;2024-01-07T15:23:07;8.13;;;3.60;;
21416;SDS011;10869;52.238;10.716;2024-01-07T15:25:34;7.80;;;4.03;;
21416;SDS011;10869;52.238;10.716;2024-01-07T15:28:01;7.57;;;3.80;;
21416;SDS011;10869;52.238;10.716;2024-01-07T15:30:27;7.80;;;3.30;;
21416;SDS011;10869;52.238;10.716;2024-01-07T15:32:53;10.27;;;4.07;;
21416;SDS011;10869;52.238;10.716;2024-01-07T15:35:19;7.33;;;3.43;;
21416;SDS011;10869;52.238;10.716;2024-01-07T15:37:44;9.60;;;4.57;;
21416;SDS011;10869;52.238;10.716;2024-01-07T15:40:10;8.97;;;3.60;;
21416;SDS011;10869;52.238;10.716;2024-01-07T15:42:38;9.70;;;3.97;;
21416;SDS011;10869;52.238;10.716;2024-01-07T15:45:04;8.60;;;3.93;;
21416;SDS011;10869;52.238;10.716;2024-01-07T15:47:31;11.07;;;3.90;;
21416;SDS011;10869;52.238;10.716;2024-01-07T15:49:59;8.33;;;4.13;;
21416;SDS011;10869;52.238;10.716;2024-01-07T15:52:25;12.57;;;5.67;;
21416;SDS011;10869;52.238;10.716;2024-01-07T15:54:52;8.33;;;4.00;;
21416;SDS011;10869;52.238;10.716;2024-01-07T15:57:18;10.10;;;3.67;;
21416;SDS011;10869;52.238;10.716;2024-01-07T15:59:44;11.33;;;3.50;;
21416;SDS011;10869;52.238;10.716;2024-01-07T16:05:32;13.00;;;4.37;;
21416;SDS011;10869;52.238;10.716;2024-01-07T16:07:59;9.07;;;4.33;;
21416;SDS011;10869;52.238;10.716;2024-01-07T16:10:24;12.87;;;4.47;;
21416;SDS011;10869;52.238;10.716;2024-01-07T16:12:50;7.33;;;3.23;;
21416;SDS011;10869;52.238;10.716;2024-01-07T16:15:18;12.40;;;3.30;;
21416;SDS011;10869;52.238;10.716;2024-01-07T16:17:44;8.83;;;2.73;;
21416;SDS011;10869;52.238;10.716;2024-01-07T16:20:10;7.30;;;3.27;;
21416;SDS011;10869;52.238;10.716;2024-01-07T16:22:37;11.43;;;3.27;;
21416;SDS011;10869;52.238;10.716;2024-01-07T16:25:06;11.20;;;3.40;;
21416;SDS011;10869;52.238;10.716;2024-01-07T16:27:37;6.83;;;3.33;;
21416;SDS011;10869;52.238;10.716;2024-01-07T16:30:06;6.47;;;3.30;;
21416;SDS011;10869;52.238;10.716;2024-01-07T16:32:32;7.87;;;4.20;;
21416;SDS011;10869;52.238;10.716;2024-01-07T16:34:57;14.87;;;5.07;;
21416;SDS011;10869;52.238;10.716;2024-01-07T16:40:45;9.83;;;4.40;;
21416;SDS011;10869;52.238;10.716;2024-01-07T16:43:11;7.40;;;3.90;;
21416;SDS011;10869;52.238;10.716;2024-01-07T16:45:36;8.77;;;4.10;;
21416;SDS011;10869;52.238;10.716;2024-01-07T16:48:03;11.23;;;3.77;;
21416;SDS011;10869;52.238;10.716;2024-01-07T16:50:30;8.40;;;3.90;;
21416;SDS011;10869;52.238;10.716;2024-01-07T16:52:56;8.73;;;4.13;;
21416;SDS011;10869;52.238;10.716;2024-01-07T16:55:21;12.33;;;4.50;;
21416;SDS011;10869;52.238;10.716;2024-01-07T16:57:47;9.33;;;5.17;;
21416;SDS011;10869;52.238;10.716;2024-01-07T17:00:13;10.50;;;4.63;;
21416;SDS011;10869;52.238;10.716;2024-01-07T17:02:41;6.50;;;3.37;;
21416;SDS011;10869;52.238;10.716;2024-01-07T17:05:07;12.93;;;3.00;;
21416;SDS011;10869;52.238;10.716;2024-01-07T17:10:56;6.07;;;3.07;;
21416;SDS011;10869;52.238;10.716;2024-01-07T17:13:22;8.83;;;3.60;;
21416;SDS011;10869;52.238;10.716;2024-01-07T17:15:48;8.27;;;2.63;;
21416;SDS011;10869;52.238;10.716;2024-01-07T17:21:36;10.17;;;3.50;;
21416;SDS011;10869;52.238;10.716;2024-01-07T17:24:01;6.00;;;2.20;;
21416;SDS011;10869;52.238;10.716;2024-01-07T17:29:49;6.87;;;2.60;;
21416;SDS011;10869;52.238;10.716;2024-01-07T17:32:14;7.30;;;2.67;;
21416;SDS011;10869;52.238;10.716;2024-01-07T17:34:42;5.03;;;2.43;;
21416;SDS011;10869;52.238;10.716;2024-01-07T17:40:45;6.80;;;2.40;;
21416;SDS011;10869;52.238;10.716;2024-01-07T17:43:12;5.00;;;2.40;;
21416;SDS011;10869;52.238;10.716;2024-01-07T17:45:38;5.57;;;2.37;;
21416;SDS011;10869;52.238;10.716;2024-01-07T17:48:11;7.07;;;3.33;;
21416;SDS011;10869;52.238;10.716;2024-01-07T17:50:39;5.33;;;2.63;;
21416;SDS011;10869;52.238;10.716;2024-01-07T17:53:09;6.17;;;3.10;;
21416;SDS011;10869;52.238;10.716;2024-01-07T17:55:37;6.63;;;2.67;;
21416;SDS011;10869;52.238;10.716;2024-01-07T18:01:28;4.37;;;2.00;;
21416;SDS011;10869;52.238;10.716;2024-01-07T18:03:56;6.03;;;2.70;;
21416;SDS011;10869;52.238;10.716;2024-01-07T18:06:25;5.10;;;2.37;;
21416;SDS011;10869;52.238;10.716;2024-01-07T18:08:51;5.13;;;2.40;;